Time;durP1;ratioP1;P1;durP2;ratioP2;P2;SDS_P1;SDS_P2;PMS_P1;PMS_P2;Temp;Humidity;BMP_temperature;BMP_pressure;BME280_temperature;BME280_humidity;BME280_pressure;Samples;Min_cycle;Max_cycle;Signal;HPM_P1;HPM_P2
2023/10/29 00:01:05;;;;;;;15.60;3.75;;;29.30;37.00;;;;;;5046040;28;20079;-59
2023/10/29 00:03:32;;;;;;;19.80;3.78;;;29.30;37.80;;;;;;5047287;28;20400;-60
2023/10/29 00:05:58;;;;;;;15.00;3.17;;;29.20;37.60;;;;;;5045931;28;20529;-59
2023/10/29 00:08:25;;;;;;;25.00;3.90;;;29.00;37.60;;;;;;5046530;28;20056;-61
2023/10/29 00:10:52;;;;;;;28.25;8.40;;;28.90;37.90;;;;;;5046844;28;20055;-62
2023/10/29 00:13:18;;;;;;;23.13;7.63;;;28.80;38.20;;;;;;5046334;28;20109;-63
2023/10/29 00:15:44;;;;;;;15.68;4.45;;;28.80;38.10;;;;;;5045407;28;20055;-65
2023/10/29 00:18:14;;;;;;;16.23;3.53;;;28.70;37.70;;;;;;5046613;28;20051;-62
2023/10/29 00:20:41;;;;;;;15.95;3.78;;;28.60;37.90;;;;;;5043432;28;20100;-63
2023/10/29 00:23:07;;;;;;;19.23;3.30;;;28.50;38.00;;;;;;5046506;28;20083;-63
2023/10/29 00:25:34;;;;;;;10.50;2.78;;;28.40;38.50;;;;;;5045368;28;20065;-59
2023/10/29 00:28:00;;;;;;;12.60;2.80;;;28.30;38.10;;;;;;5042376;28;20067;-60
2023/10/29 00:30:27;;;;;;;9.68;2.63;;;28.20;38.30;;;;;;5043175;28;20100;-60
2023/10/29 00:32:53;;;;;;;15.32;3.10;;;28.10;38.30;;;;;;5048553;28;20077;-62
2023/10/29 00:35:20;;;;;;;15.48;2.50;;;28.00;38.90;;;;;;5048274;28;20477;-62
2023/10/29 00:37:46;;;;;;;15.70;3.72;;;28.00;39.30;;;;;;5049830;28;20060;-61
2023/10/29 00:40:14;;;;;;;15.00;4.28;;;27.80;39.50;;;;;;5048443;28;20120;-61
2023/10/29 00:42:40;;;;;;;20.77;4.85;;;27.80;39.60;;;;;;5049238;28;20436;-59
2023/10/29 00:45:07;;;;;;;19.42;4.75;;;27.70;39.30;;;;;;5047589;28;20069;-60
2023/10/29 00:47:34;;;;;;;24.92;6.20;;;27.60;39.50;;;;;;5047619;28;20441;-61
2023/10/29 00:50:00;;;;;;;17.45;4.80;;;27.50;39.80;;;;;;5046845;28;20065;-59
2023/10/29 00:52:27;;;;;;;13.02;4.00;;;27.40;40.00;;;;;;5049871;28;20565;-62
2023/10/29 00:54:54;;;;;;;21.45;4.30;;;27.30;40.20;;;;;;5050251;28;20104;-60
2023/10/29 00:57:21;;;;;;;13.10;3.53;;;27.20;40.60;;;;;;5050439;28;20072;-58
2023/10/29 00:59:47;;;;;;;21.25;3.80;;;27.10;41.10;;;;;;5049965;28;20063;-60
2023/10/29 01:02:14;;;;;;;17.23;3.33;;;27.00;41.10;;;;;;5053883;28;20112;-60
2023/10/29 01:04:41;;;;;;;22.45;3.47;;;26.90;41.10;;;;;;5049304;28;20084;-62
2023/10/29 01:07:07;;;;;;;18.60;3.88;;;26.90;41.10;;;;;;5047740;28;20477;-59
2023/10/29 01:09:34;;;;;;;16.88;3.40;;;26.70;41.40;;;;;;5048188;28;20080;-61
2023/10/29 01:12:01;;;;;;;28.33;3.67;;;26.70;41.40;;;;;;5051949;28;20536;-61
2023/10/29 01:14:27;;;;;;;22.15;3.70;;;26.60;42.20;;;;;;5047897;28;20077;-62
2023/10/29 01:16:54;;;;;;;31.38;5.97;;;26.50;42.30;;;;;;5049383;28;20129;-61
2023/10/29 01:19:20;;;;;;;39.92;6.90;;;26.40;42.40;;;;;;5049046;28;20140;-61
2023/10/29 01:21:47;;;;;;;21.95;5.00;;;26.30;42.50;;;;;;5048337;28;20105;-63
2023/10/29 01:24:13;;;;;;;28.60;6.05;;;26.30;43.00;;;;;;5048121;28;20078;-62
2023/10/29 01:26:40;;;;;;;22.52;5.82;;;26.20;42.60;;;;;;5048934;28;20073;-61
2023/10/29 01:29:06;;;;;;;24.98;5.68;;;26.10;42.70;;;;;;5049251;28;20077;-59
2023/10/29 01:31:33;;;;;;;22.23;4.97;;;26.00;42.60;;;;;;5047805;28;20084;-62
2023/10/29 01:33:59;;;;;;;25.02;5.90;;;26.00;42.60;;;;;;5053390;28;20160;-61
2023/10/29 01:36:25;;;;;;;31.67;4.75;;;26.00;42.50;;;;;;5065739;28;20090;-61
2023/10/29 01:38:52;;;;;;;20.52;4.38;;;25.90;42.00;;;;;;5046579;28;20080;-61
2023/10/29 01:41:18;;;;;;;20.48;3.88;;;25.80;41.90;;;;;;5047118;28;20158;-61
2023/10/29 01:43:45;;;;;;;22.15;3.70;;;25.80;42.40;;;;;;5047393;28;20077;-58
2023/10/29 01:46:11;;;;;;;17.80;3.60;;;25.80;42.30;;;;;;5049839;28;20075;-60
2023/10/29 01:48:38;;;;;;;19.52;3.67;;;25.70;42.00;;;;;;5049456;28;20094;-59
2023/10/29 01:51:07;;;;;;;20.00;5.18;;;25.70;43.30;;;;;;5047901;28;20070;-60
2023/10/29 01:53:33;;;;;;;30.95;4.78;;;25.60;41.70;;;;;;5046826;28;20555;-61
2023/10/29 01:56:00;;;;;;;22.38;4.40;;;25.60;41.30;;;;;;5047505;28;20129;-58
2023/10/29 01:58:26;;;;;;;24.73;4.47;;;25.50;41.60;;;;;;5047959;28;20123;-61
2023/10/29 02:00:55;;;;;;;14.77;3.83;;;25.40;41.30;;;;;;5047395;28;20185;-60
2023/10/29 02:03:21;;;;;;;27.35;4.15;;;25.40;41.60;;;;;;5048193;28;20079;-60
2023/10/29 02:05:48;;;;;;;24.67;3.75;;;25.40;41.60;;;;;;5049541;28;20128;-59
2023/10/29 02:08:14;;;;;;;18.60;5.03;;;25.30;41.10;;;;;;5047921;28;20105;-60
2023/10/29 02:10:41;;;;;;;17.13;4.30;;;25.20;40.50;;;;;;5049655;28;20089;-59
2023/10/29 02:13:07;;;;;;;18.55;5.20;;;25.10;40.70;;;;;;5046955;28;20145;-60
2023/10/29 02:15:33;;;;;;;16.50;5.38;;;25.10;41.70;;;;;;5045752;28;20074;-60
2023/10/29 02:18:00;;;;;;;21.77;4.93;;;25.00;41.20;;;;;;5046165;28;20087;-62
2023/10/29 02:20:27;;;;;;;29.67;5.90;;;24.90;41.40;;;;;;5051123;28;20570;-61
2023/10/29 02:22:53;;;;;;;17.02;6.03;;;24.80;42.70;;;;;;5046400;28;20812;-62
2023/10/29 02:25:20;;;;;;;12.73;4.85;;;24.80;41.70;;;;;;5045058;28;20078;-61
2023/10/29 02:27:46;;;;;;;17.42;4.00;;;24.70;41.40;;;;;;5045454;28;20243;-61
2023/10/29 02:30:13;;;;;;;16.75;4.47;;;24.70;42.20;;;;;;5046175;28;20078;-60
2023/10/29 02:32:39;;;;;;;23.83;5.03;;;24.70;42.00;;;;;;5045421;28;20092;-61
2023/10/29 02:35:08;;;;;;;25.30;5.22;;;24.60;41.80;;;;;;5049641;28;20078;-61
2023/10/29 02:37:34;;;;;;;19.67;4.95;;;24.60;41.60;;;;;;5046624;28;20440;-60
2023/10/29 02:40:01;;;;;;;19.30;4.30;;;24.50;41.10;;;;;;5045779;28;20083;-63
2023/10/29 02:42:28;;;;;;;20.25;5.45;;;24.50;41.50;;;;;;5048685;28;20184;-60
2023/10/29 02:44:58;;;;;;;20.38;5.38;;;24.50;41.70;;;;;;5045981;28;20101;-61
2023/10/29 02:47:25;;;;;;;16.55;6.90;;;24.50;42.30;;;;;;5046075;28;20074;-61
2023/10/29 02:49:52;;;;;;;27.80;10.05;;;24.40;42.20;;;;;;5047214;28;20494;-61
2023/10/29 02:52:18;;;;;;;20.80;8.90;;;24.40;42.20;;;;;;5044502;28;20109;-62
2023/10/29 02:54:45;;;;;;;30.55;8.73;;;24.40;41.90;;;;;;5043439;28;20083;-62
2023/10/29 02:57:13;;;;;;;29.80;7.32;;;24.30;41.70;;;;;;5045236;28;20080;-61
2023/10/29 02:59:40;;;;;;;43.90;7.70;;;24.40;41.60;;;;;;5047728;28;20553;-63
2023/10/29 03:02:06;;;;;;;27.50;7.32;;;24.40;41.50;;;;;;5045270;28;20553;-61
2023/10/29 03:04:35;;;;;;;37.42;11.05;;;24.40;41.30;;;;;;5046086;28;20488;-61
2023/10/29 03:07:02;;;;;;;36.63;7.93;;;24.40;41.30;;;;;;5044161;28;20083;-60
2023/10/29 03:09:29;;;;;;;27.90;7.63;;;24.50;41.20;;;;;;5046427;28;20112;-61
2023/10/29 03:11:56;;;;;;;29.48;7.20;;;24.50;41.60;;;;;;5045323;28;20091;-59
2023/10/29 03:14:22;;;;;;;23.10;6.00;;;24.60;42.20;;;;;;5046157;28;20124;-60
2023/10/29 03:16:48;;;;;;;23.70;7.20;;;24.60;42.50;;;;;;5043353;28;20078;-65
2023/10/29 03:19:15;;;;;;;34.75;9.30;;;24.50;43.20;;;;;;5041254;28;20121;-61
2023/10/29 03:21:42;;;;;;;21.58;7.20;;;24.60;43.70;;;;;;5041059;28;20560;-68
2023/10/29 03:24:08;;;;;;;29.52;8.05;;;24.60;44.20;;;;;;5041749;28;20089;-67
2023/10/29 03:26:35;;;;;;;30.95;8.02;;;24.50;44.60;;;;;;5044634;28;20677;-64
2023/10/29 03:29:01;;;;;;;17.20;6.05;;;24.60;45.10;;;;;;5045706;28;20163;-65
2023/10/29 03:31:27;;;;;;;21.80;5.20;;;24.60;45.90;;;;;;5042958;28;20086;-67
2023/10/29 03:33:54;;;;;;;20.05;5.68;;;24.60;46.20;;;;;;5045407;28;20069;-69
2023/10/29 03:36:20;;;;;;;15.80;4.93;;;24.60;46.40;;;;;;5045312;28;20088;-67
2023/10/29 03:38:47;;;;;;;17.05;4.47;;;24.60;46.60;;;;;;5043518;28;20072;-68
2023/10/29 03:41:23;;;;;;;18.10;3.38;;;24.60;46.90;;;;;;5046430;28;20082;-68
2023/10/29 03:43:50;;;;;;;20.20;3.72;;;24.60;47.00;;;;;;5046131;28;20087;-67
2023/10/29 03:46:17;;;;;;;13.52;3.55;;;24.70;47.00;;;;;;5046720;28;20098;-68
2023/10/29 03:48:46;;;;;;;15.90;3.45;;;24.70;47.00;;;;;;5049080;28;20123;-65
2023/10/29 03:51:13;;;;;;;16.33;3.47;;;24.70;47.10;;;;;;5045824;28;20952;-63
2023/10/29 03:53:40;;;;;;;9.77;3.10;;;24.70;47.10;;;;;;5045331;28;20069;-67
2023/10/29 03:56:07;;;;;;;26.45;3.58;;;24.70;47.00;;;;;;5042882;28;20076;-64
2023/10/29 03:58:33;;;;;;;15.85;3.60;;;24.80;47.00;;;;;;5047265;28;20164;-61
2023/10/29 04:01:01;;;;;;;11.27;3.75;;;24.80;47.20;;;;;;5045150;28;20089;-59
2023/10/29 04:03:28;;;;;;;8.98;3.15;;;24.80;47.10;;;;;;5051409;28;20156;-65
2023/10/29 04:05:56;;;;;;;14.07;3.45;;;24.70;47.20;;;;;;5042223;28;20074;-65
2023/10/29 04:08:22;;;;;;;10.70;4.28;;;24.70;47.40;;;;;;5048152;28;20137;-66
2023/10/29 04:10:49;;;;;;;14.02;4.40;;;24.70;47.50;;;;;;5048155;28;20105;-60
2023/10/29 04:13:15;;;;;;;10.45;3.90;;;24.70;47.50;;;;;;5049964;28;20233;-61
2023/10/29 04:15:42;;;;;;;8.98;2.53;;;24.70;47.60;;;;;;5048688;28;20090;-60
2023/10/29 04:18:08;;;;;;;19.88;3.65;;;24.70;47.70;;;;;;5047442;28;20611;-64
2023/10/29 04:20:35;;;;;;;11.90;3.08;;;24.60;47.80;;;;;;5046982;28;20108;-55
2023/10/29 04:23:01;;;;;;;18.42;3.45;;;24.60;47.90;;;;;;5049602;28;20142;-61
2023/10/29 04:25:27;;;;;;;12.13;3.28;;;24.50;48.10;;;;;;5046227;28;20087;-58
2023/10/29 04:27:54;;;;;;;14.95;3.50;;;24.50;48.10;;;;;;5051445;28;20228;-59
2023/10/29 04:30:21;;;;;;;52.08;5.55;;;24.50;48.30;;;;;;5046114;28;20452;-58
2023/10/29 04:32:48;;;;;;;14.05;3.08;;;24.50;48.40;;;;;;5046486;28;20109;-61
2023/10/29 04:35:14;;;;;;;18.02;3.50;;;24.40;48.40;;;;;;5049798;28;20531;-61
2023/10/29 04:37:41;;;;;;;10.23;3.10;;;24.40;48.60;;;;;;5047653;28;20083;-60
2023/10/29 04:40:08;;;;;;;7.00;2.92;;;24.30;48.50;;;;;;5042266;28;20081;-59
2023/10/29 04:42:35;;;;;;;6.18;2.90;;;24.30;48.30;;;;;;5046877;28;20168;-61
2023/10/29 04:45:01;;;;;;;10.52;2.92;;;24.30;48.50;;;;;;5044737;28;20501;-60
2023/10/29 04:47:28;;;;;;;10.35;3.38;;;24.20;48.70;;;;;;5047962;28;20075;-60
2023/10/29 04:49:54;;;;;;;12.35;2.70;;;24.20;49.00;;;;;;5050133;28;20132;-59
2023/10/29 04:52:21;;;;;;;15.02;3.10;;;24.10;49.40;;;;;;5050074;28;20184;-58
2023/10/29 04:54:47;;;;;;;12.95;2.92;;;24.10;49.40;;;;;;5050059;28;20625;-61
2023/10/29 04:57:14;;;;;;;11.50;3.00;;;24.00;49.80;;;;;;5049740;28;20113;-62
2023/10/29 04:59:40;;;;;;;10.38;2.80;;;23.90;49.90;;;;;;5045364;28;20167;-60
2023/10/29 05:02:07;;;;;;;11.85;3.20;;;23.90;50.20;;;;;;5046698;28;20075;-61
2023/10/29 05:04:33;;;;;;;13.63;3.45;;;23.80;50.40;;;;;;5047275;28;20085;-60
2023/10/29 05:07:00;;;;;;;12.10;3.22;;;23.70;50.90;;;;;;5045955;28;20087;-59
2023/10/29 05:09:26;;;;;;;11.00;3.65;;;23.60;51.80;;;;;;5048982;28;20083;-60
2023/10/29 05:11:53;;;;;;;15.25;3.45;;;23.50;52.90;;;;;;5047260;28;20095;-64
2023/10/29 05:14:19;;;;;;;15.68;3.50;;;23.40;53.70;;;;;;5048940;28;20082;-60
2023/10/29 05:16:46;;;;;;;12.07;3.55;;;23.30;54.10;;;;;;5048531;28;20552;-60
2023/10/29 05:19:13;;;;;;;12.35;3.53;;;23.20;54.40;;;;;;5045175;28;20073;-62
2023/10/29 05:21:39;;;;;;;12.60;3.15;;;23.10;54.10;;;;;;5047348;28;20545;-60
2023/10/29 05:24:07;;;;;;;11.43;3.70;;;23.10;53.30;;;;;;5047772;28;20167;-62
2023/10/29 05:26:36;;;;;;;12.25;3.70;;;23.10;53.10;;;;;;5049067;28;20080;-60
2023/10/29 05:29:04;;;;;;;13.48;3.42;;;23.00;52.80;;;;;;5048502;28;20567;-63
2023/10/29 05:31:31;;;;;;;16.88;4.05;;;22.90;52.80;;;;;;5049440;28;20135;-60
2023/10/29 05:33:58;;;;;;;8.77;3.33;;;22.90;53.00;;;;;;5048297;28;20090;-62
2023/10/29 05:36:25;;;;;;;9.48;3.35;;;22.80;53.20;;;;;;5048414;28;20078;-63
2023/10/29 05:38:51;;;;;;;17.75;3.90;;;22.90;53.50;;;;;;5048603;28;20084;-57
2023/10/29 05:41:18;;;;;;;13.75;3.95;;;22.80;53.60;;;;;;5047726;28;20443;-62
2023/10/29 05:43:44;;;;;;;25.60;11.38;;;22.80;53.70;;;;;;5050213;28;20079;-61
2023/10/29 05:46:15;;;;;;;18.40;4.28;;;22.70;53.70;;;;;;5051059;28;20083;-60
2023/10/29 05:48:42;;;;;;;22.83;14.40;;;22.70;54.20;;;;;;5047997;28;20130;-61
2023/10/29 05:51:12;;;;;;;29.40;15.50;;;22.70;54.40;;;;;;5049547;28;20094;-63
2023/10/29 05:53:43;;;;;;;23.13;7.07;;;22.60;54.50;;;;;;5051063;28;20547;-61
2023/10/29 05:56:10;;;;;;;12.05;5.22;;;22.60;54.90;;;;;;5050757;28;20084;-61
2023/10/29 05:58:36;;;;;;;23.15;5.68;;;22.40;55.00;;;;;;5048030;28;20075;-59
2023/10/29 06:01:03;;;;;;;25.30;6.43;;;22.50;55.90;;;;;;5046864;28;20083;-62
2023/10/29 06:03:30;;;;;;;20.05;6.93;;;22.40;55.90;;;;;;5047621;28;20141;-62
2023/10/29 06:05:56;;;;;;;26.00;6.28;;;22.40;56.60;;;;;;5050514;28;20077;-64
2023/10/29 06:08:23;;;;;;;28.95;6.60;;;22.30;57.00;;;;;;5053510;28;20083;-59
2023/10/29 06:10:50;;;;;;;20.42;6.45;;;22.10;57.20;;;;;;5051244;28;20157;-61
2023/10/29 06:13:16;;;;;;;24.75;6.20;;;22.00;57.70;;;;;;5053096;28;20107;-63
2023/10/29 06:15:43;;;;;;;21.88;6.20;;;22.00;57.80;;;;;;5052938;28;20167;-62
2023/10/29 06:18:09;;;;;;;17.63;6.05;;;22.00;58.10;;;;;;5046956;28;20087;-63
2023/10/29 06:20:41;;;;;;;22.67;5.45;;;22.00;58.00;;;;;;5049905;28;20134;-60
2023/10/29 06:23:08;;;;;;;20.13;6.18;;;21.90;58.20;;;;;;5055783;28;20080;-62
2023/10/29 06:25:35;;;;;;;19.40;5.72;;;21.90;58.60;;;;;;5047399;28;20133;-60
2023/10/29 06:28:01;;;;;;;22.95;6.63;;;21.80;58.30;;;;;;5046912;28;20073;-61
2023/10/29 06:30:28;;;;;;;23.65;6.30;;;21.80;58.60;;;;;;5047146;28;20611;-60
2023/10/29 06:32:54;;;;;;;29.17;6.13;;;21.80;58.50;;;;;;5045091;28;20184;-61
2023/10/29 06:35:21;;;;;;;19.05;6.35;;;21.80;58.10;;;;;;5048702;28;20110;-63
2023/10/29 06:37:47;;;;;;;24.05;6.35;;;21.80;58.10;;;;;;5047133;28;20133;-62
2023/10/29 06:40:14;;;;;;;20.95;6.13;;;21.80;58.30;;;;;;5046240;28;20153;-61
2023/10/29 06:42:42;;;;;;;14.80;5.53;;;21.80;58.50;;;;;;5046701;28;20108;-60
2023/10/29 06:45:09;;;;;;;19.10;5.28;;;21.80;57.80;;;;;;5047980;28;20084;-60
2023/10/29 06:47:36;;;;;;;11.25;4.68;;;21.80;57.70;;;;;;5045209;28;20455;-59
2023/10/29 06:50:02;;;;;;;13.38;3.63;;;21.70;57.30;;;;;;5048864;28;20536;-63
2023/10/29 06:52:29;;;;;;;10.80;3.42;;;21.80;57.00;;;;;;5046815;28;21696;-60
2023/10/29 06:54:55;;;;;;;13.98;4.28;;;21.80;57.60;;;;;;5045342;28;20179;-60
2023/10/29 06:57:22;;;;;;;13.57;3.53;;;21.90;57.30;;;;;;5046761;28;20172;-60
2023/10/29 06:59:48;;;;;;;15.98;4.10;;;21.90;57.30;;;;;;5046332;28;20081;-62
2023/10/29 07:02:15;;;;;;;11.93;3.47;;;21.90;57.30;;;;;;5044870;28;20084;-63
2023/10/29 07:04:41;;;;;;;15.93;4.00;;;21.90;57.30;;;;;;5046457;28;20084;-64
2023/10/29 07:07:08;;;;;;;11.32;3.53;;;21.90;57.40;;;;;;5045856;28;20084;-62
2023/10/29 07:09:35;;;;;;;14.70;3.85;;;21.90;57.60;;;;;;5045294;28;20670;-62
2023/10/29 07:12:01;;;;;;;11.82;3.70;;;21.90;57.80;;;;;;5046832;28;20158;-63
2023/10/29 07:14:28;;;;;;;10.07;3.90;;;21.90;57.90;;;;;;5045983;28;20077;-63
2023/10/29 07:16:54;;;;;;;20.27;3.95;;;21.80;58.00;;;;;;5046124;28;20073;-61
2023/10/29 07:19:21;;;;;;;10.80;3.65;;;21.80;58.10;;;;;;5046089;28;20084;-61
2023/10/29 07:21:47;;;;;;;17.25;3.83;;;21.80;58.30;;;;;;5045472;28;20653;-61
2023/10/29 07:24:14;;;;;;;12.73;3.95;;;21.70;58.70;;;;;;5046408;28;20099;-63
2023/10/29 07:26:41;;;;;;;17.30;4.13;;;21.70;58.90;;;;;;5045781;28;20104;-62
2023/10/29 07:29:08;;;;;;;12.48;4.03;;;21.60;59.30;;;;;;5046421;28;20505;-61
2023/10/29 07:31:34;;;;;;;26.40;4.60;;;21.60;59.80;;;;;;5046646;28;20159;-62
2023/10/29 07:34:00;;;;;;;14.77;4.22;;;21.60;60.10;;;;;;5045290;28;20163;-61
2023/10/29 07:36:28;;;;;;;21.52;4.30;;;21.60;60.70;;;;;;5045173;28;20087;-60
2023/10/29 07:38:55;;;;;;;16.25;4.25;;;21.50;61.00;;;;;;5045060;28;20119;-60
2023/10/29 07:41:22;;;;;;;14.85;4.45;;;21.50;61.30;;;;;;5045120;28;20134;-62
2023/10/29 07:43:48;;;;;;;21.20;4.55;;;21.50;61.70;;;;;;5047346;28;20112;-63
2023/10/29 07:46:15;;;;;;;21.10;4.30;;;21.40;62.40;;;;;;5050795;28;20088;-60
2023/10/29 07:48:42;;;;;;;15.93;4.00;;;21.40;62.70;;;;;;5051863;28;20458;-62
2023/10/29 07:51:12;;;;;;;17.85;5.00;;;21.40;63.40;;;;;;5056107;28;20076;-60
2023/10/29 07:53:38;;;;;;;18.00;4.75;;;21.30;63.90;;;;;;5052119;28;20164;-60
2023/10/29 07:56:13;;;;;;;18.10;5.20;;;21.30;64.00;;;;;;5049520;28;20575;-60
2023/10/29 07:58:41;;;;;;;29.92;5.25;;;21.20;64.50;;;;;;5046737;28;20087;-58
2023/10/29 08:01:11;;;;;;;25.40;6.70;;;21.10;65.20;;;;;;5047397;28;20076;-63
2023/10/29 08:03:38;;;;;;;21.55;6.38;;;21.10;66.00;;;;;;5052681;28;20087;-63
2023/10/29 08:06:05;;;;;;;19.77;5.18;;;21.10;66.50;;;;;;5054513;28;20104;-62
2023/10/29 08:08:31;;;;;;;22.23;5.20;;;21.10;66.80;;;;;;5049964;28;20111;-61
2023/10/29 08:10:58;;;;;;;16.67;4.82;;;21.10;66.80;;;;;;5051491;28;20132;-60
2023/10/29 08:13:24;;;;;;;19.40;5.28;;;21.00;66.70;;;;;;5053957;28;20096;-61
2023/10/29 08:15:51;;;;;;;15.25;4.50;;;20.90;66.70;;;;;;5051687;28;20167;-61
2023/10/29 08:18:17;;;;;;;18.83;4.43;;;20.80;66.40;;;;;;5052285;28;20077;-60
2023/10/29 08:20:44;;;;;;;15.70;3.95;;;20.80;66.20;;;;;;5053592;28;20068;-62
2023/10/29 08:23:10;;;;;;;23.58;4.10;;;20.80;66.00;;;;;;5052995;28;20084;-62
2023/10/29 08:25:38;;;;;;;18.58;4.05;;;20.80;65.60;;;;;;5054428;28;20567;-60
2023/10/29 08:28:07;;;;;;;27.85;4.65;;;20.80;65.30;;;;;;5051214;28;20175;-62
2023/10/29 08:30:34;;;;;;;16.60;4.47;;;20.80;65.00;;;;;;5052285;28;20076;-61
2023/10/29 08:33:00;;;;;;;19.98;4.68;;;20.70;64.80;;;;;;5052196;28;20138;-60
2023/10/29 08:35:27;;;;;;;15.85;4.25;;;20.70;64.70;;;;;;5051785;28;20094;-61
2023/10/29 08:37:53;;;;;;;16.90;3.97;;;20.70;64.70;;;;;;5051569;28;20084;-61
2023/10/29 08:40:20;;;;;;;22.90;4.13;;;20.70;64.60;;;;;;5055794;28;20084;-60
2023/10/29 08:42:46;;;;;;;25.90;4.20;;;20.60;64.40;;;;;;5051167;28;20186;-60
2023/10/29 08:45:13;;;;;;;23.27;4.55;;;20.70;64.40;;;;;;5051591;28;20084;-62
2023/10/29 08:47:40;;;;;;;18.30;4.22;;;20.60;64.20;;;;;;5053091;28;20095;-60
2023/10/29 08:50:08;;;;;;;25.60;4.80;;;20.60;64.40;;;;;;5053586;28;20425;-61
2023/10/29 08:52:35;;;;;;;14.85;4.18;;;20.70;64.10;;;;;;5051478;28;20108;-61
2023/10/29 08:55:01;;;;;;;17.27;4.00;;;20.60;63.80;;;;;;5049276;28;20176;-61
2023/10/29 08:57:28;;;;;;;7.68;3.20;;;20.60;63.50;;;;;;5047943;28;20080;-62
2023/10/29 08:59:54;;;;;;;17.65;3.85;;;20.50;63.40;;;;;;5048710;28;20085;-61
2023/10/29 09:02:21;;;;;;;21.73;3.90;;;20.50;63.00;;;;;;5048124;28;20076;-60
2023/10/29 09:04:47;;;;;;;14.25;3.90;;;20.60;62.40;;;;;;5048697;28;20088;-60
2023/10/29 09:07:14;;;;;;;17.88;3.88;;;20.60;61.80;;;;;;5049202;28;20086;-60
2023/10/29 09:09:40;;;;;;;20.67;3.88;;;20.60;61.60;;;;;;5049423;28;20088;-63
2023/10/29 09:12:07;;;;;;;16.55;3.60;;;20.50;61.70;;;;;;5047646;28;20100;-63
2023/10/29 09:14:33;;;;;;;21.10;4.53;;;20.50;61.80;;;;;;5050539;28;20080;-61
2023/10/29 09:16:59;;;;;;;20.23;3.70;;;20.50;62.10;;;;;;5048446;28;20115;-61
2023/10/29 09:19:27;;;;;;;15.52;3.50;;;20.50;61.90;;;;;;5051543;28;20087;-63
2023/10/29 09:21:54;;;;;;;24.52;4.18;;;20.50;61.80;;;;;;5048063;28;20099;-63
2023/10/29 09:24:20;;;;;;;11.48;3.47;;;20.50;62.80;;;;;;5049139;28;20139;-63
2023/10/29 09:26:47;;;;;;;16.00;3.97;;;20.50;62.00;;;;;;5048365;28;20084;-62
2023/10/29 09:29:13;;;;;;;14.63;3.63;;;20.50;62.10;;;;;;5047597;28;20087;-62
2023/10/29 09:31:39;;;;;;;13.90;3.92;;;20.50;62.00;;;;;;5048366;28;20124;-60
2023/10/29 09:34:06;;;;;;;11.30;2.97;;;20.50;62.00;;;;;;5047027;28;20108;-62
2023/10/29 09:36:33;;;;;;;10.55;3.50;;;20.50;61.80;;;;;;5047730;28;20072;-61
2023/10/29 09:38:59;;;;;;;21.33;3.28;;;20.50;61.50;;;;;;5046615;28;20108;-61
2023/10/29 09:41:26;;;;;;;16.77;3.45;;;20.50;60.80;;;;;;5048050;28;20083;-62
2023/10/29 09:43:53;;;;;;;12.02;3.50;;;20.50;60.00;;;;;;5047291;28;20081;-64
2023/10/29 09:46:23;;;;;;;18.80;3.70;;;20.40;60.00;;;;;;5050709;28;20087;-61
2023/10/29 09:48:51;;;;;;;23.17;3.35;;;20.40;58.90;;;;;;5047339;28;20157;-62
2023/10/29 09:51:22;;;;;;;13.57;3.47;;;20.40;57.70;;;;;;5047215;28;20418;-62
2023/10/29 09:53:52;;;;;;;22.77;3.50;;;20.50;57.10;;;;;;5053631;28;20077;-63
2023/10/29 09:56:18;;;;;;;15.85;3.88;;;20.40;56.40;;;;;;5046444;28;20081;-62
2023/10/29 09:58:45;;;;;;;15.73;3.17;;;20.40;56.30;;;;;;5046822;28;20080;-61
2023/10/29 10:01:11;;;;;;;19.83;3.13;;;20.40;56.80;;;;;;5048453;28;20159;-61
2023/10/29 10:03:37;;;;;;;11.82;3.00;;;20.40;56.50;;;;;;5047232;28;20443;-66
2023/10/29 10:06:06;;;;;;;13.05;2.88;;;20.40;56.70;;;;;;5047116;28;20498;-63
2023/10/29 10:08:33;;;;;;;25.27;3.45;;;20.30;56.80;;;;;;5046201;28;20137;-60
2023/10/29 10:10:59;;;;;;;11.48;3.00;;;20.30;57.00;;;;;;5048016;28;20167;-63
2023/10/29 10:13:37;;;;;;;19.15;3.25;;;20.20;57.60;;;;;;5047336;28;20096;-63
2023/10/29 10:16:14;;;;;;;16.52;3.10;;;20.20;57.40;;;;;;5045069;28;20834;-63
2023/10/29 10:18:58;;;;;;;22.50;3.70;;;20.10;57.10;;;;;;5033207;28;20088;-63
2023/10/29 10:21:42;;;;;;;22.70;3.85;;;20.00;57.00;;;;;;5047399;28;20088;-60
2023/10/29 10:24:11;;;;;;;19.67;3.20;;;20.00;56.90;;;;;;5044924;28;20072;-61
2023/10/29 10:26:40;;;;;;;13.68;3.25;;;19.90;56.80;;;;;;5049896;28;20268;-62
2023/10/29 10:29:08;;;;;;;15.38;3.33;;;19.80;56.80;;;;;;5046916;28;20439;-62
2023/10/29 10:31:35;;;;;;;18.30;3.40;;;19.80;57.20;;;;;;5046924;28;20599;-60
2023/10/29 10:34:15;;;;;;;14.13;2.92;;;19.80;57.10;;;;;;5047256;28;20080;-61
2023/10/29 10:36:49;;;;;;;17.13;3.55;;;19.70;56.90;;;;;;5046926;28;20072;-61
2023/10/29 10:39:20;;;;;;;13.00;3.10;;;19.60;57.00;;;;;;5045975;28;20084;-63
2023/10/29 10:41:47;;;;;;;22.10;2.75;;;19.60;57.30;;;;;;5047462;28;20532;-62
2023/10/29 10:44:19;;;;;;;23.70;3.72;;;19.50;57.10;;;;;;5044861;28;20594;-63
2023/10/29 10:46:57;;;;;;;29.33;3.75;;;19.50;57.10;;;;;;5047153;28;20626;-61
2023/10/29 10:49:25;;;;;;;15.95;3.35;;;19.50;57.10;;;;;;5047661;28;20411;-60
2023/10/29 10:51:56;;;;;;;29.77;3.88;;;19.40;57.00;;;;;;5047190;28;20096;-61
2023/10/29 10:54:23;;;;;;;18.83;3.42;;;19.40;56.80;;;;;;5046000;28;20115;-62
2023/10/29 10:56:51;;;;;;;17.48;3.45;;;19.30;55.70;;;;;;5045959;28;20080;-59
2023/10/29 10:59:19;;;;;;;25.35;3.70;;;19.30;55.30;;;;;;5045654;28;20665;-63
2023/10/29 11:01:46;;;;;;;26.90;3.80;;;19.20;55.60;;;;;;5049750;28;20100;-63
2023/10/29 11:04:14;;;;;;;23.33;3.65;;;19.20;55.90;;;;;;5046630;28;20137;-61
2023/10/29 11:06:42;;;;;;;25.30;3.95;;;19.20;55.90;;;;;;5046685;28;20092;-63
2023/10/29 11:09:14;;;;;;;18.50;3.53;;;19.10;56.10;;;;;;5046779;28;20098;-61
2023/10/29 11:11:58;;;;;;;29.13;3.97;;;19.10;56.00;;;;;;5046466;28;20549;-62
2023/10/29 11:14:25;;;;;;;24.35;3.97;;;18.90;55.30;;;;;;5045162;28;20111;-61
2023/10/29 11:16:54;;;;;;;39.97;4.55;;;18.90;55.30;;;;;;5045332;28;20159;-62
2023/10/29 11:19:39;;;;;;;19.77;4.55;;;18.90;54.90;;;;;;5046081;28;20098;-61
2023/10/29 11:22:19;;;;;;;21.20;4.00;;;18.80;54.50;;;;;;5046640;28;20091;-63
2023/10/29 11:25:08;;;;;;;32.97;5.00;;;18.90;53.80;;;;;;5046742;28;20089;-65
2023/10/29 11:27:43;;;;;;;21.02;4.30;;;19.20;52.40;;;;;;5044150;28;20092;-61
2023/10/29 11:30:20;;;;;;;37.53;4.55;;;19.20;51.70;;;;;;5045671;28;20092;-61
2023/10/29 11:33:12;;;;;;;41.05;4.18;;;19.30;50.90;;;;;;5046935;28;20095;-59
2023/10/29 11:35:40;;;;;;;38.05;4.75;;;19.40;49.80;;;;;;5048529;28;20076;-61
2023/10/29 11:38:33;;;;;;;28.95;5.78;;;19.50;49.10;;;;;;5050922;28;20084;-61
2023/10/29 11:41:00;;;;;;;37.00;5.10;;;19.40;48.50;;;;;;5047471;28;20807;-61
2023/10/29 11:43:27;;;;;;;32.53;4.75;;;19.30;48.40;;;;;;5048772;28;20088;-61
2023/10/29 11:45:58;;;;;;;35.05;5.28;;;19.40;48.30;;;;;;5048267;28;20111;-61
2023/10/29 11:48:25;;;;;;;24.92;4.55;;;19.40;47.50;;;;;;5048587;28;20112;-61
2023/10/29 11:51:08;;;;;;;30.73;4.90;;;19.40;47.30;;;;;;5046919;28;20175;-60
2023/10/29 11:53:38;;;;;;;41.38;5.18;;;19.40;47.90;;;;;;5051975;28;20100;-64
2023/10/29 11:56:07;;;;;;;26.08;4.72;;;19.30;47.40;;;;;;5047111;28;20085;-64
2023/10/29 11:58:34;;;;;;;38.40;4.90;;;19.30;47.00;;;;;;5045600;28;21615;-62
2023/10/29 12:01:00;;;;;;;32.75;5.68;;;19.20;46.60;;;;;;5046496;28;20076;-60
2023/10/29 12:03:29;;;;;;;29.35;4.70;;;19.10;44.50;;;;;;5046269;28;20088;-61
2023/10/29 12:05:57;;;;;;;37.28;4.65;;;19.10;45.00;;;;;;5047373;28;20486;-62
2023/10/29 12:08:30;;;;;;;28.63;5.03;;;19.10;46.60;;;;;;5045454;28;20088;-62
2023/10/29 12:10:56;;;;;;;25.77;5.32;;;19.10;48.10;;;;;;5046338;28;20106;-62
2023/10/29 12:13:23;;;;;;;32.90;5.13;;;19.00;48.30;;;;;;5045128;28;20095;-63
2023/10/29 12:16:03;;;;;;;27.70;4.75;;;19.00;47.80;;;;;;5045247;28;20126;-60
2023/10/29 12:18:29;;;;;;;45.28;5.25;;;18.90;47.60;;;;;;5045609;28;20087;-61
2023/10/29 12:21:07;;;;;;;40.95;5.38;;;18.80;47.10;;;;;;5045939;28;20068;-61
2023/10/29 12:23:35;;;;;;;37.28;5.38;;;18.90;47.20;;;;;;5044400;28;20557;-60
2023/10/29 12:26:06;;;;;;;38.33;5.10;;;18.90;46.80;;;;;;5046100;28;20161;-62
2023/10/29 12:28:38;;;;;;;32.72;5.28;;;18.80;46.40;;;;;;5047548;28;20084;-61
2023/10/29 12:31:04;;;;;;;31.85;5.07;;;18.90;46.80;;;;;;5048158;28;20084;-60
2023/10/29 12:33:33;;;;;;;38.30;4.97;;;18.80;46.90;;;;;;5051415;28;20104;-59
2023/10/29 12:36:03;;;;;;;45.28;5.72;;;18.70;46.80;;;;;;5048794;28;20088;-61
2023/10/29 12:38:30;;;;;;;27.77;4.78;;;18.70;46.20;;;;;;5049269;28;20084;-60
2023/10/29 12:41:14;;;;;;;41.38;6.13;;;18.70;46.70;;;;;;5049498;28;20149;-62